sensor_id;sensor_type;location;lat;lon;timestamp;pressure;altitude;pressure_sealevel;temperature;humidity
61573;BME280;47465;43.094;12.434;2022-08-01T00:01:59;98579.38;;;24.18;44.26
61573;BME280;47465;43.094;12.434;2022-08-01T00:04:25;98563.28;;;24.05;43.99
61573;BME280;47465;43.094;12.434;2022-08-01T00:06:51;98560.63;;;24.15;43.88
61573;BME280;47465;43.094;12.434;2022-08-01T00:09:16;98580.06;;;24.31;43.60
61573;BME280;47465;43.094;12.434;2022-08-01T00:11:42;98574.47;;;24.33;43.58
61573;BME280;47465;43.094;12.434;2022-08-01T00:14:08;98578.59;;;24.27;43.90
61573;BME280;47465;43.094;12.434;2022-08-01T00:16:35;98557.84;;;24.05;43.71
61573;BME280;47465;43.094;12.434;2022-08-01T00:19:03;98565.53;;;24.00;44.77
61573;BME280;47465;43.094;12.434;2022-08-01T00:21:29;98581.06;;;23.77;45.64
61573;BME280;47465;43.094;12.434;2022-08-01T00:23:54;98576.91;;;23.62;44.84
61573;BME280;47465;43.094;12.434;2022-08-01T00:26:20;98585.56;;;23.44;45.98
61573;BME280;47465;43.094;12.434;2022-08-01T00:28:46;98571.31;;;23.20;45.96
61573;BME280;47465;43.094;12.434;2022-08-01T00:31:12;98574.53;;;23.13;46.26
61573;BME280;47465;43.094;12.434;2022-08-01T00:33:38;98559.13;;;23.03;46.64
61573;BME280;47465;43.094;12.434;2022-08-01T00:36:05;98557.41;;;22.90;47.04
61573;BME280;47465;43.094;12.434;2022-08-01T00:38:31;98564.81;;;22.88;47.63
61573;BME280;47465;43.094;12.434;2022-08-01T00:40:57;98574.78;;;22.76;48.28
61573;BME280;47465;43.094;12.434;2022-08-01T00:43:23;98583.91;;;22.64;48.74
61573;BME280;47465;43.094;12.434;2022-08-01T00:45:49;98582.16;;;22.52;48.96
61573;BME280;47465;43.094;12.434;2022-08-01T00:48:15;98560.06;;;22.23;49.40
61573;BME280;47465;43.094;12.434;2022-08-01T00:50:41;98575.69;;;22.19;49.30
61573;BME280;47465;43.094;12.434;2022-08-01T00:53:08;98583.78;;;22.08;49.29
61573;BME280;47465;43.094;12.434;2022-08-01T00:55:34;98590.50;;;21.91;49.88
61573;BME280;47465;43.094;12.434;2022-08-01T00:58:00;98575.53;;;21.74;50.82
61573;BME280;47465;43.094;12.434;2022-08-01T01:00:26;98590.06;;;21.73;51.00
61573;BME280;47465;43.094;12.434;2022-08-01T01:02:52;98569.53;;;21.58;50.98
61573;BME280;47465;43.094;12.434;2022-08-01T01:05:18;98579.75;;;21.54;51.42
61573;BME280;47465;43.094;12.434;2022-08-01T01:07:48;98575.31;;;21.40;51.90
61573;BME280;47465;43.094;12.434;2022-08-01T01:10:21;98590.09;;;21.36;52.32
61573;BME280;47465;43.094;12.434;2022-08-01T01:12:51;98587.81;;;21.30;54.08
61573;BME280;47465;43.094;12.434;2022-08-01T01:15:23;98597.13;;;21.26;53.81
61573;BME280;47465;43.094;12.434;2022-08-01T01:17:56;98568.13;;;21.04;54.11
61573;BME280;47465;43.094;12.434;2022-08-01T01:20:27;98579.03;;;21.02;54.26
61573;BME280;47465;43.094;12.434;2022-08-01T01:23:10;98590.59;;;21.04;54.74
61573;BME280;47465;43.094;12.434;2022-08-01T01:25:51;98587.06;;;20.91;54.23
61573;BME280;47465;43.094;12.434;2022-08-01T01:28:25;98589.00;;;20.89;53.54
61573;BME280;47465;43.094;12.434;2022-08-01T01:30:57;98570.75;;;20.80;52.63
61573;BME280;47465;43.094;12.434;2022-08-01T01:33:25;98570.19;;;20.87;51.97
61573;BME280;47465;43.094;12.434;2022-08-01T01:35:59;98584.09;;;21.07;52.19
61573;BME280;47465;43.094;12.434;2022-08-01T01:38:29;98572.53;;;21.05;52.00
61573;BME280;47465;43.094;12.434;2022-08-01T01:40:58;98575.53;;;21.13;51.11
61573;BME280;47465;43.094;12.434;2022-08-01T01:43:26;98580.59;;;21.18;51.00
61573;BME280;47465;43.094;12.434;2022-08-01T01:45:55;98581.66;;;21.28;50.60
61573;BME280;47465;43.094;12.434;2022-08-01T01:48:22;98573.31;;;21.31;49.56
61573;BME280;47465;43.094;12.434;2022-08-01T01:50:49;98587.38;;;21.36;50.02
61573;BME280;47465;43.094;12.434;2022-08-01T01:53:19;98577.91;;;21.54;48.22
61573;BME280;47465;43.094;12.434;2022-08-01T01:55:46;98584.75;;;21.71;48.06
61573;BME280;47465;43.094;12.434;2022-08-01T01:58:15;98554.59;;;21.65;46.93
61573;BME280;47465;43.094;12.434;2022-08-01T02:00:42;98575.69;;;22.19;44.91
61573;BME280;47465;43.094;12.434;2022-08-01T02:03:11;98557.69;;;22.18;44.86
61573;BME280;47465;43.094;12.434;2022-08-01T02:05:37;98580.56;;;22.38;44.49
61573;BME280;47465;43.094;12.434;2022-08-01T02:08:04;98574.13;;;22.28;46.29
61573;BME280;47465;43.094;12.434;2022-08-01T02:10:32;98573.19;;;22.16;45.97
61573;BME280;47465;43.094;12.434;2022-08-01T02:13:02;98569.81;;;22.25;45.04
61573;BME280;47465;43.094;12.434;2022-08-01T02:15:29;98565.78;;;22.65;42.54
61573;BME280;47465;43.094;12.434;2022-08-01T02:17:57;98564.44;;;22.82;42.06
61573;BME280;47465;43.094;12.434;2022-08-01T02:20:27;98583.81;;;22.77;45.34
61573;BME280;47465;43.094;12.434;2022-08-01T02:22:59;98571.06;;;22.44;48.38
61573;BME280;47465;43.094;12.434;2022-08-01T02:25:31;98570.25;;;22.19;49.08
61573;BME280;47465;43.094;12.434;2022-08-01T02:28:03;98570.31;;;21.95;49.77
61573;BME280;47465;43.094;12.434;2022-08-01T02:30:32;98575.78;;;21.71;50.35
61573;BME280;47465;43.094;12.434;2022-08-01T02:33:02;98586.25;;;21.51;51.13
61573;BME280;47465;43.094;12.434;2022-08-01T02:35:34;98589.53;;;21.31;52.20
61573;BME280;47465;43.094;12.434;2022-08-01T02:38:02;98591.41;;;21.18;52.44
61573;BME280;47465;43.094;12.434;2022-08-01T02:40:32;98586.19;;;20.90;52.91
61573;BME280;47465;43.094;12.434;2022-08-01T02:43:00;98600.69;;;20.77;53.06
61573;BME280;47465;43.094;12.434;2022-08-01T02:45:27;98604.25;;;20.64;52.20
61573;BME280;47465;43.094;12.434;2022-08-01T02:47:57;98600.47;;;20.54;52.67
61573;BME280;47465;43.094;12.434;2022-08-01T02:50:25;98605.97;;;20.40;52.99
61573;BME280;47465;43.094;12.434;2022-08-01T02:52:55;98571.59;;;20.16;53.18
61573;BME280;47465;43.094;12.434;2022-08-01T02:55:22;98600.66;;;20.13;53.65
61573;BME280;47465;43.094;12.434;2022-08-01T02:57:50;98610.56;;;20.12;53.47
61573;BME280;47465;43.094;12.434;2022-08-01T03:00:18;98580.63;;;19.89;53.91
61573;BME280;47465;43.094;12.434;2022-08-01T03:02:45;98592.97;;;19.94;53.99
61573;BME280;47465;43.094;12.434;2022-08-01T03:05:13;98595.56;;;19.95;54.78
61573;BME280;47465;43.094;12.434;2022-08-01T03:07:41;98602.56;;;19.98;55.17
61573;BME280;47465;43.094;12.434;2022-08-01T03:10:09;98618.97;;;19.95;55.80
61573;BME280;47465;43.094;12.434;2022-08-01T03:12:36;98596.13;;;19.73;55.68
61573;BME280;47465;43.094;12.434;2022-08-01T03:15:05;98603.66;;;19.68;56.02
61573;BME280;47465;43.094;12.434;2022-08-01T03:17:33;98616.59;;;19.63;56.40
61573;BME280;47465;43.094;12.434;2022-08-01T03:20:01;98613.56;;;19.67;56.42
61573;BME280;47465;43.094;12.434;2022-08-01T03:22:32;98619.31;;;19.48;56.89
61573;BME280;47465;43.094;12.434;2022-08-01T03:25:00;98618.09;;;19.40;57.30
61573;BME280;47465;43.094;12.434;2022-08-01T03:27:29;98607.91;;;19.31;57.74
61573;BME280;47465;43.094;12.434;2022-08-01T03:29:58;98623.03;;;19.33;57.16
61573;BME280;47465;43.094;12.434;2022-08-01T03:32:24;98614.56;;;19.25;55.91
61573;BME280;47465;43.094;12.434;2022-08-01T03:34:52;98625.88;;;19.44;55.57
61573;BME280;47465;43.094;12.434;2022-08-01T03:37:23;98614.16;;;19.31;56.00
61573;BME280;47465;43.094;12.434;2022-08-01T03:39:55;98599.91;;;19.29;55.70
61573;BME280;47465;43.094;12.434;2022-08-01T03:42:31;98618.09;;;19.40;55.92
61573;BME280;47465;43.094;12.434;2022-08-01T03:44:59;98625.25;;;19.54;57.37
61573;BME280;47465;43.094;12.434;2022-08-01T03:47:31;98619.47;;;19.60;57.05
61573;BME280;47465;43.094;12.434;2022-08-01T03:49:58;98598.84;;;19.32;58.04
61573;BME280;47465;43.094;12.434;2022-08-01T03:52:25;98613.50;;;19.27;58.69
61573;BME280;47465;43.094;12.434;2022-08-01T03:54:55;98608.09;;;19.27;58.21
61573;BME280;47465;43.094;12.434;2022-08-01T03:57:23;98615.41;;;19.25;56.76
61573;BME280;47465;43.094;12.434;2022-08-01T03:59:52;98623.81;;;19.21;57.59
61573;BME280;47465;43.094;12.434;2022-08-01T04:02:18;98606.78;;;19.06;57.61
61573;BME280;47465;43.094;12.434;2022-08-01T04:04:45;98615.31;;;19.00;57.76
61573;BME280;47465;43.094;12.434;2022-08-01T04:07:21;98627.13;;;18.97;57.24
61573;BME280;47465;43.094;12.434;2022-08-01T04:09:48;98607.44;;;18.82;57.31
61573;BME280;47465;43.094;12.434;2022-08-01T04:12:14;98620.78;;;18.98;57.36
61573;BME280;47465;43.094;12.434;2022-08-01T04:14:39;98615.56;;;19.09;57.15
61573;BME280;47465;43.094;12.434;2022-08-01T04:17:07;98626.81;;;19.16;56.42
61573;BME280;47465;43.094;12.434;2022-08-01T04:19:32;98618.16;;;19.11;56.69
61573;BME280;47465;43.094;12.434;2022-08-01T04:21:59;98628.66;;;19.16;56.96
61573;BME280;47465;43.094;12.434;2022-08-01T04:24:26;98607.00;;;19.03;57.62
61573;BME280;47465;43.094;12.434;2022-08-01T04:26:56;98639.44;;;19.16;57.08
61573;BME280;47465;43.094;12.434;2022-08-01T04:29:24;98605.84;;;18.93;57.82
61573;BME280;47465;43.094;12.434;2022-08-01T04:31:52;98620.69;;;19.00;57.84
61573;BME280;47465;43.094;12.434;2022-08-01T04:34:23;98641.25;;;19.15;57.42
61573;BME280;47465;43.094;12.434;2022-08-01T04:36:52;98632.59;;;19.10;58.50
61573;BME280;47465;43.094;12.434;2022-08-01T04:39:20;98630.88;;;19.09;58.54
61573;BME280;47465;43.094;12.434;2022-08-01T04:41:50;98634.50;;;19.08;59.04
61573;BME280;47465;43.094;12.434;2022-08-01T04:44:16;98635.28;;;19.10;58.79
61573;BME280;47465;43.094;12.434;2022-08-01T04:46:42;98624.16;;;19.02;59.28
61573;BME280;47465;43.094;12.434;2022-08-01T04:49:10;98648.66;;;19.12;59.60
61573;BME280;47465;43.094;12.434;2022-08-01T04:51:49;98630.78;;;18.96;60.65
61573;BME280;47465;43.094;12.434;2022-08-01T04:54:16;98635.50;;;18.93;60.52
61573;BME280;47465;43.094;12.434;2022-08-01T04:56:42;98645.88;;;18.99;60.61
61573;BME280;47465;43.094;12.434;2022-08-01T04:59:08;98646.56;;;19.02;60.69
61573;BME280;47465;43.094;12.434;2022-08-01T05:02:10;98655.69;;;19.14;59.96
61573;BME280;47465;43.094;12.434;2022-08-01T05:04:37;98647.69;;;19.27;58.99
61573;BME280;47465;43.094;12.434;2022-08-01T05:07:04;98649.78;;;19.36;58.16
61573;BME280;47465;43.094;12.434;2022-08-01T05:09:30;98658.25;;;19.44;58.24
61573;BME280;47465;43.094;12.434;2022-08-01T05:11:56;98653.19;;;19.67;58.57
61573;BME280;47465;43.094;12.434;2022-08-01T05:14:24;98655.22;;;20.30;57.02
61573;BME280;47465;43.094;12.434;2022-08-01T05:16:49;98639.09;;;20.69;55.90
61573;BME280;47465;43.094;12.434;2022-08-01T05:19:17;98636.13;;;21.10;54.86
61573;BME280;47465;43.094;12.434;2022-08-01T05:21:43;98639.63;;;21.49;52.89
61573;BME280;47465;43.094;12.434;2022-08-01T05:24:09;98646.53;;;21.53;52.78
61573;BME280;47465;43.094;12.434;2022-08-01T05:26:35;98636.06;;;21.73;51.88
61573;BME280;47465;43.094;12.434;2022-08-01T05:29:01;98642.03;;;21.89;51.23
61573;BME280;47465;43.094;12.434;2022-08-01T05:31:26;98645.31;;;22.06;50.89
61573;BME280;47465;43.094;12.434;2022-08-01T05:33:53;98648.50;;;22.24;50.27
61573;BME280;47465;43.094;12.434;2022-08-01T05:36:20;98644.97;;;22.46;49.98
61573;BME280;47465;43.094;12.434;2022-08-01T05:38:46;98647.31;;;22.50;49.84
61573;BME280;47465;43.094;12.434;2022-08-01T05:41:12;98656.22;;;22.64;49.31
61573;BME280;47465;43.094;12.434;2022-08-01T05:43:38;98650.41;;;22.68;49.39
61573;BME280;47465;43.094;12.434;2022-08-01T05:46:04;98657.38;;;22.84;49.04
61573;BME280;47465;43.094;12.434;2022-08-01T05:48:29;98639.25;;;22.84;48.67
61573;BME280;47465;43.094;12.434;2022-08-01T05:50:55;98646.63;;;22.93;48.63
61573;BME280;47465;43.094;12.434;2022-08-01T05:53:23;98649.63;;;23.02;48.17
61573;BME280;47465;43.094;12.434;2022-08-01T05:55:49;98662.06;;;23.15;48.33
61573;BME280;47465;43.094;12.434;2022-08-01T05:58:14;98663.69;;;23.29;47.96
61573;BME280;47465;43.094;12.434;2022-08-01T06:00:40;98662.31;;;23.35;47.50
61573;BME280;47465;43.094;12.434;2022-08-01T06:03:06;98655.78;;;23.37;47.58
61573;BME280;47465;43.094;12.434;2022-08-01T06:05:32;98666.84;;;23.57;47.60
61573;BME280;47465;43.094;12.434;2022-08-01T06:07:58;98648.72;;;23.46;47.40
61573;BME280;47465;43.094;12.434;2022-08-01T06:10:25;98665.22;;;23.66;46.98
61573;BME280;47465;43.094;12.434;2022-08-01T06:12:51;98655.38;;;23.76;47.14
61573;BME280;47465;43.094;12.434;2022-08-01T06:15:17;98660.28;;;23.82;46.45
61573;BME280;47465;43.094;12.434;2022-08-01T06:17:43;98663.22;;;23.90;46.31
61573;BME280;47465;43.094;12.434;2022-08-01T06:20:09;98668.34;;;24.05;46.13
61573;BME280;47465;43.094;12.434;2022-08-01T06:22:35;98663.81;;;24.05;46.01
61573;BME280;47465;43.094;12.434;2022-08-01T06:25:01;98652.78;;;24.07;46.06
61573;BME280;47465;43.094;12.434;2022-08-01T06:27:29;98666.69;;;24.25;45.18
61573;BME280;47465;43.094;12.434;2022-08-01T06:29:55;98653.34;;;24.22;45.73
61573;BME280;47465;43.094;12.434;2022-08-01T06:32:22;98655.31;;;24.19;45.62
61573;BME280;47465;43.094;12.434;2022-08-01T06:34:48;98665.06;;;24.22;45.61
61573;BME280;47465;43.094;12.434;2022-08-01T06:37:15;98671.22;;;24.24;45.09
61573;BME280;47465;43.094;12.434;2022-08-01T06:39:41;98657.25;;;24.29;45.15
61573;BME280;47465;43.094;12.434;2022-08-01T06:42:07;98646.94;;;24.23;44.89
61573;BME280;47465;43.094;12.434;2022-08-01T06:44:36;98671.75;;;24.50;44.62
61573;BME280;47465;43.094;12.434;2022-08-01T06:47:02;98652.94;;;24.58;44.19
61573;BME280;47465;43.094;12.434;2022-08-01T06:49:28;98655.19;;;24.53;43.92
61573;BME280;47465;43.094;12.434;2022-08-01T06:51:54;98664.28;;;24.64;44.56
61573;BME280;47465;43.094;12.434;2022-08-01T06:54:19;98653.66;;;24.82;44.00
61573;BME280;47465;43.094;12.434;2022-08-01T06:56:46;98666.41;;;25.12;42.81
61573;BME280;47465;43.094;12.434;2022-08-01T06:59:12;98664.94;;;25.08;42.62
61573;BME280;47465;43.094;12.434;2022-08-01T07:01:40;98667.97;;;25.14;41.99
61573;BME280;47465;43.094;12.434;2022-08-01T07:04:06;98662.47;;;25.26;41.92
61573;BME280;47465;43.094;12.434;2022-08-01T07:06:32;98641.44;;;25.07;41.56
61573;BME280;47465;43.094;12.434;2022-08-01T07:08:58;98652.91;;;25.00;42.10
61573;BME280;47465;43.094;12.434;2022-08-01T07:11:27;98662.16;;;24.98;42.29
61573;BME280;47465;43.094;12.434;2022-08-01T07:13:53;98650.84;;;24.93;42.52
61573;BME280;47465;43.094;12.434;2022-08-01T07:16:19;98649.00;;;25.24;42.02
61573;BME280;47465;43.094;12.434;2022-08-01T07:18:46;98648.09;;;25.54;41.04
61573;BME280;47465;43.094;12.434;2022-08-01T07:21:12;98643.69;;;25.82;40.46
61573;BME280;47465;43.094;12.434;2022-08-01T07:23:38;98626.97;;;26.07;39.94
61573;BME280;47465;43.094;12.434;2022-08-01T07:26:04;98640.88;;;26.42;38.63
61573;BME280;47465;43.094;12.434;2022-08-01T07:28:32;98629.38;;;26.58;38.18
61573;BME280;47465;43.094;12.434;2022-08-01T07:30:57;98634.78;;;26.88;37.77
61573;BME280;47465;43.094;12.434;2022-08-01T07:33:23;98622.50;;;27.01;36.54
61573;BME280;47465;43.094;12.434;2022-08-01T07:35:51;98636.94;;;27.31;36.32
61573;BME280;47465;43.094;12.434;2022-08-01T07:38:17;98635.53;;;27.55;36.42
61573;BME280;47465;43.094;12.434;2022-08-01T07:40:43;98645.59;;;27.54;35.75
61573;BME280;47465;43.094;12.434;2022-08-01T07:43:09;98632.72;;;27.64;35.99
61573;BME280;47465;43.094;12.434;2022-08-01T07:45:35;98626.03;;;27.21;36.00
61573;BME280;47465;43.094;12.434;2022-08-01T07:48:03;98625.22;;;27.11;36.41
61573;BME280;47465;43.094;12.434;2022-08-01T07:50:29;98623.44;;;27.30;35.83
61573;BME280;47465;43.094;12.434;2022-08-01T07:52:56;98621.50;;;27.68;35.83
61573;BME280;47465;43.094;12.434;2022-08-01T07:55:22;98620.09;;;27.81;34.26
61573;BME280;47465;43.094;12.434;2022-08-01T07:57:48;98626.44;;;28.36;33.76
61573;BME280;47465;43.094;12.434;2022-08-01T08:00:15;98632.25;;;28.77;33.50
61573;BME280;47465;43.094;12.434;2022-08-01T08:02:41;98628.31;;;29.05;33.04
61573;BME280;47465;43.094;12.434;2022-08-01T08:05:07;98618.69;;;29.19;32.30
61573;BME280;47465;43.094;12.434;2022-08-01T08:07:34;98624.63;;;29.15;32.11
61573;BME280;47465;43.094;12.434;2022-08-01T08:10:01;98639.34;;;29.48;32.40
61573;BME280;47465;43.094;12.434;2022-08-01T08:12:27;98613.34;;;29.60;31.93
61573;BME280;47465;43.094;12.434;2022-08-01T08:14:53;98624.41;;;29.42;31.82
61573;BME280;47465;43.094;12.434;2022-08-01T08:17:19;98607.38;;;29.22;31.93
61573;BME280;47465;43.094;12.434;2022-08-01T08:19:45;98620.47;;;29.37;31.93
61573;BME280;47465;43.094;12.434;2022-08-01T08:22:11;98613.34;;;29.60;31.31
61573;BME280;47465;43.094;12.434;2022-08-01T08:24:37;98606.75;;;29.87;30.54
61573;BME280;47465;43.094;12.434;2022-08-01T08:27:15;98622.22;;;30.13;29.79
61573;BME280;47465;43.094;12.434;2022-08-01T08:29:41;98617.94;;;30.27;28.74
61573;BME280;47465;43.094;12.434;2022-08-01T08:32:07;98632.38;;;30.54;28.80
61573;BME280;47465;43.094;12.434;2022-08-01T08:34:33;98609.56;;;30.53;28.15
61573;BME280;47465;43.094;12.434;2022-08-01T08:36:59;98622.75;;;30.74;29.01
61573;BME280;47465;43.094;12.434;2022-08-01T08:39:25;98625.81;;;30.96;27.50
61573;BME280;47465;43.094;12.434;2022-08-01T08:41:52;98622.72;;;30.99;25.79
61573;BME280;47465;43.094;12.434;2022-08-01T08:44:20;98619.63;;;31.10;25.10
61573;BME280;47465;43.094;12.434;2022-08-01T08:46:48;98613.03;;;31.27;24.30
61573;BME280;47465;43.094;12.434;2022-08-01T08:49:15;98626.84;;;31.50;24.37
61573;BME280;47465;43.094;12.434;2022-08-01T08:51:42;98609.63;;;31.17;24.41
61573;BME280;47465;43.094;12.434;2022-08-01T08:54:11;98630.34;;;31.36;22.77
61573;BME280;47465;43.094;12.434;2022-08-01T08:56:38;98610.78;;;31.23;23.51
61573;BME280;47465;43.094;12.434;2022-08-01T08:59:12;98628.63;;;31.27;23.25
61573;BME280;47465;43.094;12.434;2022-08-01T09:01:41;98630.81;;;31.40;23.60
61573;BME280;47465;43.094;12.434;2022-08-01T09:04:07;98611.28;;;31.35;21.82
61573;BME280;47465;43.094;12.434;2022-08-01T09:06:33;98617.22;;;31.55;22.32
61573;BME280;47465;43.094;12.434;2022-08-01T09:09:00;98627.19;;;31.87;21.99
61573;BME280;47465;43.094;12.434;2022-08-01T09:11:25;98613.66;;;32.08;21.45
61573;BME280;47465;43.094;12.434;2022-08-01T09:14:06;98619.41;;;32.22;21.06
61573;BME280;47465;43.094;12.434;2022-08-01T09:16:34;98603.84;;;32.29;21.59
61573;BME280;47465;43.094;12.434;2022-08-01T09:19:10;98601.25;;;32.50;21.61
61573;BME280;47465;43.094;12.434;2022-08-01T09:21:36;98600.94;;;32.53;21.08
61573;BME280;47465;43.094;12.434;2022-08-01T09:24:03;98612.16;;;32.67;21.64
61573;BME280;47465;43.094;12.434;2022-08-01T09:26:31;98613.03;;;32.82;21.40
61573;BME280;47465;43.094;12.434;2022-08-01T09:28:59;98598.97;;;32.62;20.49
61573;BME280;47465;43.094;12.434;2022-08-01T09:31:28;98597.63;;;32.58;20.56
61573;BME280;47465;43.094;12.434;2022-08-01T09:33:56;98592.50;;;32.70;21.22
61573;BME280;47465;43.094;12.434;2022-08-01T09:36:26;98603.84;;;32.29;20.87
61573;BME280;47465;43.094;12.434;2022-08-01T09:38:54;98598.66;;;32.57;21.20
61573;BME280;47465;43.094;12.434;2022-08-01T09:41:29;98602.66;;;32.69;21.42
61573;BME280;47465;43.094;12.434;2022-08-01T09:43:56;98603.69;;;32.07;21.25
61573;BME280;47465;43.094;12.434;2022-08-01T09:46:23;98603.94;;;31.66;22.33
61573;BME280;47465;43.094;12.434;2022-08-01T09:48:56;98601.84;;;32.00;21.97
61573;BME280;47465;43.094;12.434;2022-08-01T09:51:32;98587.00;;;32.32;22.24
61573;BME280;47465;43.094;12.434;2022-08-01T09:53:59;98582.53;;;32.69;22.10
61573;BME280;47465;43.094;12.434;2022-08-01T09:56:25;98579.34;;;32.95;21.54
61573;BME280;47465;43.094;12.434;2022-08-01T09:58:54;98580.69;;;33.14;21.24
61573;BME280;47465;43.094;12.434;2022-08-01T10:01:20;98588.47;;;33.40;21.09
61573;BME280;47465;43.094;12.434;2022-08-01T10:03:46;98566.41;;;32.95;21.63
61573;BME280;47465;43.094;12.434;2022-08-01T10:06:21;98584.75;;;32.88;21.72
61573;BME280;47465;43.094;12.434;2022-08-01T10:08:49;98575.88;;;32.63;22.17
61573;BME280;47465;43.094;12.434;2022-08-01T10:11:15;98575.50;;;32.81;21.80
61573;BME280;47465;43.094;12.434;2022-08-01T10:13:41;98577.78;;;32.63;21.21
61573;BME280;47465;43.094;12.434;2022-08-01T10:16:08;98572.47;;;32.76;22.53
61573;BME280;47465;43.094;12.434;2022-08-01T10:18:35;98580.22;;;33.10;22.19
61573;BME280;47465;43.094;12.434;2022-08-01T10:21:03;98565.25;;;33.34;21.90
61573;BME280;47465;43.094;12.434;2022-08-01T10:23:33;98556.25;;;32.66;22.12
61573;BME280;47465;43.094;12.434;2022-08-01T10:26:02;98551.22;;;33.00;22.61
61573;BME280;47465;43.094;12.434;2022-08-01T10:28:30;98547.03;;;33.33;21.95
61573;BME280;47465;43.094;12.434;2022-08-01T10:30:56;98555.13;;;33.56;21.48
61573;BME280;47465;43.094;12.434;2022-08-01T10:33:23;98543.84;;;33.66;22.18
61573;BME280;47465;43.094;12.434;2022-08-01T10:35:49;98546.44;;;33.74;20.88
61573;BME280;47465;43.094;12.434;2022-08-01T10:38:16;98534.31;;;33.69;21.64
61573;BME280;47465;43.094;12.434;2022-08-01T10:40:43;98535.38;;;33.89;21.66
61573;BME280;47465;43.094;12.434;2022-08-01T10:43:10;98526.97;;;33.97;21.42
61573;BME280;47465;43.094;12.434;2022-08-01T10:45:37;98527.56;;;34.14;21.41
61573;BME280;47465;43.094;12.434;2022-08-01T10:48:06;98538.19;;;33.96;20.36
61573;BME280;47465;43.094;12.434;2022-08-01T10:50:38;98533.25;;;33.91;21.54
61573;BME280;47465;43.094;12.434;2022-08-01T10:53:13;98520.72;;;33.89;21.40
61573;BME280;47465;43.094;12.434;2022-08-01T10:55:47;98531.63;;;33.97;21.08
61573;BME280;47465;43.094;12.434;2022-08-01T10:58:20;98512.91;;;33.92;21.02
61573;BME280;47465;43.094;12.434;2022-08-01T11:00:46;98516.72;;;33.70;21.28
61573;BME280;47465;43.094;12.434;2022-08-01T11:03:12;98526.06;;;33.90;21.79
61573;BME280;47465;43.094;12.434;2022-08-01T11:05:39;98514.72;;;34.07;21.29
61573;BME280;47465;43.094;12.434;2022-08-01T11:08:10;98507.53;;;34.06;20.59
61573;BME280;47465;43.094;12.434;2022-08-01T11:10:38;98500.19;;;33.33;21.37
61573;BME280;47465;43.094;12.434;2022-08-01T11:13:04;98505.81;;;33.62;21.70
61573;BME280;47465;43.094;12.434;2022-08-01T11:15:35;98496.69;;;33.83;21.52
61573;BME280;47465;43.094;12.434;2022-08-01T11:18:02;98500.22;;;34.20;21.87
61573;BME280;47465;43.094;12.434;2022-08-01T11:20:29;98503.25;;;34.25;20.87
61573;BME280;47465;43.094;12.434;2022-08-01T11:23:23;98491.09;;;34.19;20.64
61573;BME280;47465;43.094;12.434;2022-08-01T11:26:16;98497.63;;;33.90;20.86
61573;BME280;47465;43.094;12.434;2022-08-01T11:28:44;98494.97;;;34.03;20.70
61573;BME280;47465;43.094;12.434;2022-08-01T11:31:31;98494.97;;;34.25;20.65
61573;BME280;47465;43.094;12.434;2022-08-01T11:33:58;98479.72;;;34.29;20.26
61573;BME280;47465;43.094;12.434;2022-08-01T11:36:24;98478.56;;;34.45;20.23
61573;BME280;47465;43.094;12.434;2022-08-01T11:39:12;98482.47;;;34.57;20.08
61573;BME280;47465;43.094;12.434;2022-08-01T11:41:38;98471.91;;;34.39;20.40
61573;BME280;47465;43.094;12.434;2022-08-01T11:44:06;98480.72;;;34.00;21.42
61573;BME280;47465;43.094;12.434;2022-08-01T11:46:59;98476.47;;;33.97;20.29
61573;BME280;47465;43.094;12.434;2022-08-01T11:49:27;98464.47;;;33.83;20.69
61573;BME280;47465;43.094;12.434;2022-08-01T11:52:01;98458.84;;;33.76;20.59
61573;BME280;47465;43.094;12.434;2022-08-01T11:54:28;98469.81;;;33.91;19.93
61573;BME280;47465;43.094;12.434;2022-08-01T11:56:59;98457.28;;;33.67;21.12
61573;BME280;47465;43.094;12.434;2022-08-01T11:59:26;98454.84;;;34.01;21.05
61573;BME280;47465;43.094;12.434;2022-08-01T12:01:52;98457.19;;;34.25;20.46
61573;BME280;47465;43.094;12.434;2022-08-01T12:04:20;98446.13;;;34.53;20.18
61573;BME280;47465;43.094;12.434;2022-08-01T12:06:46;98438.84;;;34.81;19.83
61573;BME280;47465;43.094;12.434;2022-08-01T12:09:19;98430.03;;;35.05;19.55
61573;BME280;47465;43.094;12.434;2022-08-01T12:11:46;98432.53;;;34.93;18.97
61573;BME280;47465;43.094;12.434;2022-08-01T12:14:16;98433.53;;;34.44;18.99
61573;BME280;47465;43.094;12.434;2022-08-01T12:16:49;98435.53;;;34.57;19.31
61573;BME280;47465;43.094;12.434;2022-08-01T12:19:20;98447.56;;;34.84;19.23
61573;BME280;47465;43.094;12.434;2022-08-01T12:22:11;98438.06;;;35.00;18.79
61573;BME280;47465;43.094;12.434;2022-08-01T12:24:39;98453.53;;;35.29;19.50
61573;BME280;47465;43.094;12.434;2022-08-01T12:27:06;98438.47;;;35.52;18.00
61573;BME280;47465;43.094;12.434;2022-08-01T12:29:37;98434.25;;;35.76;18.31
61573;BME280;47465;43.094;12.434;2022-08-01T12:32:04;98429.75;;;35.48;18.58
61573;BME280;47465;43.094;12.434;2022-08-01T12:34:31;98434.97;;;34.68;18.52
61573;BME280;47465;43.094;12.434;2022-08-01T12:37:00;98426.34;;;34.91;18.96
61573;BME280;47465;43.094;12.434;2022-08-01T12:39:32;98429.03;;;35.20;19.08
61573;BME280;47465;43.094;12.434;2022-08-01T12:41:58;98417.06;;;35.06;18.45
61573;BME280;47465;43.094;12.434;2022-08-01T12:44:25;98421.75;;;35.12;18.20
61573;BME280;47465;43.094;12.434;2022-08-01T12:46:52;98414.28;;;35.06;18.09
61573;BME280;47465;43.094;12.434;2022-08-01T12:49:18;98413.97;;;35.29;18.62
61573;BME280;47465;43.094;12.434;2022-08-01T12:51:45;98406.59;;;34.94;18.46
61573;BME280;47465;43.094;12.434;2022-08-01T12:54:11;98401.97;;;34.25;18.96
61573;BME280;47465;43.094;12.434;2022-08-01T12:56:37;98404.19;;;34.78;18.50